sensor_id;sensor_type;location;lat;lon;timestamp;P1;durP1;ratioP1;P2;durP2;ratioP2
74791;SDS011;63319;46.046;17.802;2023-02-21T00:00:29;26.15;;;16.30;;
74791;SDS011;63319;46.046;17.802;2023-02-21T00:03:51;25.63;;;16.83;;
74791;SDS011;63319;46.046;17.802;2023-02-21T00:07:12;24.67;;;15.82;;
74791;SDS011;63319;46.046;17.802;2023-02-21T00:10:34;25.73;;;16.70;;
74791;SDS011;63319;46.046;17.802;2023-02-21T00:13:55;22.75;;;15.55;;
74791;SDS011;63319;46.046;17.802;2023-02-21T00:17:17;24.10;;;16.30;;
74791;SDS011;63319;46.046;17.802;2023-02-21T00:20:38;24.52;;;15.55;;
74791;SDS011;63319;46.046;17.802;2023-02-21T00:24:00;25.38;;;16.05;;
74791;SDS011;63319;46.046;17.802;2023-02-21T00:27:22;23.03;;;14.93;;
74791;SDS011;63319;46.046;17.802;2023-02-21T00:30:44;23.15;;;15.02;;
74791;SDS011;63319;46.046;17.802;2023-02-21T00:34:06;22.45;;;15.73;;
74791;SDS011;63319;46.046;17.802;2023-02-21T00:37:27;23.15;;;15.00;;
74791;SDS011;63319;46.046;17.802;2023-02-21T00:40:49;23.42;;;15.90;;
74791;SDS011;63319;46.046;17.802;2023-02-21T00:44:11;21.50;;;14.63;;
74791;SDS011;63319;46.046;17.802;2023-02-21T00:47:32;21.80;;;13.98;;
74791;SDS011;63319;46.046;17.802;2023-02-21T00:50:53;22.15;;;14.23;;
74791;SDS011;63319;46.046;17.802;2023-02-21T00:54:16;23.17;;;14.77;;
74791;SDS011;63319;46.046;17.802;2023-02-21T00:57:37;22.48;;;14.40;;
74791;SDS011;63319;46.046;17.802;2023-02-21T01:00:59;21.87;;;14.50;;
74791;SDS011;63319;46.046;17.802;2023-02-21T01:04:21;22.58;;;14.65;;
74791;SDS011;63319;46.046;17.802;2023-02-21T01:07:42;22.40;;;14.30;;
74791;SDS011;63319;46.046;17.802;2023-02-21T01:11:04;20.27;;;14.35;;
74791;SDS011;63319;46.046;17.802;2023-02-21T01:14:25;20.65;;;14.07;;
74791;SDS011;63319;46.046;17.802;2023-02-21T01:17:57;21.60;;;13.67;;
74791;SDS011;63319;46.046;17.802;2023-02-21T01:21:19;21.13;;;13.48;;
74791;SDS011;63319;46.046;17.802;2023-02-21T01:24:40;20.10;;;13.35;;
74791;SDS011;63319;46.046;17.802;2023-02-21T01:28:02;18.55;;;12.77;;
74791;SDS011;63319;46.046;17.802;2023-02-21T01:31:23;20.35;;;13.27;;
74791;SDS011;63319;46.046;17.802;2023-02-21T01:34:46;17.67;;;12.20;;
74791;SDS011;63319;46.046;17.802;2023-02-21T01:38:08;18.80;;;12.60;;
74791;SDS011;63319;46.046;17.802;2023-02-21T01:41:30;19.15;;;12.93;;
74791;SDS011;63319;46.046;17.802;2023-02-21T01:45:05;20.05;;;12.73;;
74791;SDS011;63319;46.046;17.802;2023-02-21T01:48:41;18.88;;;12.60;;
74791;SDS011;63319;46.046;17.802;2023-02-21T01:52:03;17.47;;;11.87;;
74791;SDS011;63319;46.046;17.802;2023-02-21T01:55:26;17.00;;;11.23;;
74791;SDS011;63319;46.046;17.802;2023-02-21T01:58:48;18.30;;;11.77;;
74791;SDS011;63319;46.046;17.802;2023-02-21T02:06:08;19.05;;;11.75;;
74791;SDS011;63319;46.046;17.802;2023-02-21T02:09:32;18.00;;;11.23;;
74791;SDS011;63319;46.046;17.802;2023-02-21T02:13:06;16.83;;;10.95;;
74791;SDS011;63319;46.046;17.802;2023-02-21T02:16:17;16.65;;;11.18;;
74791;SDS011;63319;46.046;17.802;2023-02-21T02:33:34;16.35;;;10.70;;
74791;SDS011;63319;46.046;17.802;2023-02-21T02:37:12;16.73;;;9.93;;
74791;SDS011;63319;46.046;17.802;2023-02-21T02:43:43;16.27;;;10.20;;
74791;SDS011;63319;46.046;17.802;2023-02-21T02:47:12;15.48;;;10.20;;
74791;SDS011;63319;46.046;17.802;2023-02-21T02:50:20;15.40;;;10.27;;
74791;SDS011;63319;46.046;17.802;2023-02-21T02:53:28;15.50;;;9.52;;
74791;SDS011;63319;46.046;17.802;2023-02-21T02:56:33;15.13;;;9.88;;
74791;SDS011;63319;46.046;17.802;2023-02-21T02:59:39;14.47;;;9.20;;
74791;SDS011;63319;46.046;17.802;2023-02-21T03:03:03;14.90;;;9.45;;
74791;SDS011;63319;46.046;17.802;2023-02-21T03:10:08;15.48;;;9.13;;
74791;SDS011;63319;46.046;17.802;2023-02-21T03:13:20;14.02;;;8.90;;
74791;SDS011;63319;46.046;17.802;2023-02-21T03:16:54;13.40;;;9.43;;
74791;SDS011;63319;46.046;17.802;2023-02-21T03:20:03;13.32;;;8.52;;
74791;SDS011;63319;46.046;17.802;2023-02-21T03:23:11;12.77;;;8.38;;
74791;SDS011;63319;46.046;17.802;2023-02-21T03:26:18;13.27;;;8.55;;
74791;SDS011;63319;46.046;17.802;2023-02-21T03:29:26;13.95;;;9.30;;
74791;SDS011;63319;46.046;17.802;2023-02-21T03:32:32;14.70;;;8.87;;
74791;SDS011;63319;46.046;17.802;2023-02-21T03:35:38;15.20;;;8.82;;
74791;SDS011;63319;46.046;17.802;2023-02-21T03:38:41;13.98;;;8.68;;
74791;SDS011;63319;46.046;17.802;2023-02-21T03:41:45;13.23;;;8.73;;
74791;SDS011;63319;46.046;17.802;2023-02-21T03:44:49;13.07;;;8.20;;
74791;SDS011;63319;46.046;17.802;2023-02-21T03:47:53;12.77;;;8.17;;
74791;SDS011;63319;46.046;17.802;2023-02-21T03:50:57;13.00;;;7.88;;
74791;SDS011;63319;46.046;17.802;2023-02-21T03:54:04;13.65;;;8.65;;
74791;SDS011;63319;46.046;17.802;2023-02-21T03:57:14;12.75;;;8.32;;
74791;SDS011;63319;46.046;17.802;2023-02-21T04:00:20;11.95;;;8.15;;
74791;SDS011;63319;46.046;17.802;2023-02-21T04:03:28;13.63;;;8.23;;
74791;SDS011;63319;46.046;17.802;2023-02-21T04:06:36;11.75;;;7.70;;
74791;SDS011;63319;46.046;17.802;2023-02-21T04:09:40;13.32;;;8.43;;
74791;SDS011;63319;46.046;17.802;2023-02-21T04:12:47;11.77;;;7.97;;
74791;SDS011;63319;46.046;17.802;2023-02-21T04:15:50;11.95;;;7.72;;
74791;SDS011;63319;46.046;17.802;2023-02-21T04:18:54;12.33;;;7.70;;
74791;SDS011;63319;46.046;17.802;2023-02-21T04:21:59;10.90;;;7.10;;
74791;SDS011;63319;46.046;17.802;2023-02-21T04:25:03;12.63;;;8.13;;
74791;SDS011;63319;46.046;17.802;2023-02-21T04:28:12;11.32;;;7.45;;
74791;SDS011;63319;46.046;17.802;2023-02-21T04:31:16;11.60;;;7.47;;
74791;SDS011;63319;46.046;17.802;2023-02-21T04:34:20;11.80;;;7.40;;
74791;SDS011;63319;46.046;17.802;2023-02-21T04:37:30;11.45;;;7.35;;
74791;SDS011;63319;46.046;17.802;2023-02-21T04:40:36;10.93;;;7.45;;
74791;SDS011;63319;46.046;17.802;2023-02-21T04:43:40;11.40;;;6.80;;
74791;SDS011;63319;46.046;17.802;2023-02-21T04:46:44;11.23;;;7.50;;
74791;SDS011;63319;46.046;17.802;2023-02-21T04:49:47;10.13;;;6.33;;
74791;SDS011;63319;46.046;17.802;2023-02-21T04:52:54;10.63;;;6.85;;
74791;SDS011;63319;46.046;17.802;2023-02-21T04:55:57;9.27;;;6.70;;
74791;SDS011;63319;46.046;17.802;2023-02-21T04:59:00;11.63;;;7.05;;
74791;SDS011;63319;46.046;17.802;2023-02-21T05:02:02;10.88;;;6.75;;
74791;SDS011;63319;46.046;17.802;2023-02-21T05:05:07;11.43;;;7.20;;
74791;SDS011;63319;46.046;17.802;2023-02-21T05:08:10;10.73;;;6.72;;
74791;SDS011;63319;46.046;17.802;2023-02-21T05:11:15;11.57;;;6.97;;
74791;SDS011;63319;46.046;17.802;2023-02-21T05:14:23;9.10;;;5.80;;
74791;SDS011;63319;46.046;17.802;2023-02-21T05:17:26;9.95;;;6.35;;
74791;SDS011;63319;46.046;17.802;2023-02-21T05:20:29;10.93;;;6.60;;
74791;SDS011;63319;46.046;17.802;2023-02-21T05:23:32;10.65;;;6.45;;
74791;SDS011;63319;46.046;17.802;2023-02-21T05:26:36;10.35;;;6.63;;
74791;SDS011;63319;46.046;17.802;2023-02-21T05:29:40;9.93;;;6.53;;
74791;SDS011;63319;46.046;17.802;2023-02-21T05:32:44;9.68;;;6.47;;
74791;SDS011;63319;46.046;17.802;2023-02-21T05:35:47;10.70;;;7.07;;
74791;SDS011;63319;46.046;17.802;2023-02-21T05:38:53;11.15;;;6.40;;
74791;SDS011;63319;46.046;17.802;2023-02-21T05:41:57;10.68;;;6.55;;
74791;SDS011;63319;46.046;17.802;2023-02-21T05:44:59;10.30;;;6.30;;
74791;SDS011;63319;46.046;17.802;2023-02-21T05:48:03;10.68;;;6.13;;
74791;SDS011;63319;46.046;17.802;2023-02-21T05:51:10;10.13;;;6.53;;
74791;SDS011;63319;46.046;17.802;2023-02-21T05:54:15;10.18;;;6.10;;
74791;SDS011;63319;46.046;17.802;2023-02-21T05:57:19;9.57;;;6.10;;
74791;SDS011;63319;46.046;17.802;2023-02-21T06:00:27;12.13;;;7.38;;
74791;SDS011;63319;46.046;17.802;2023-02-21T06:03:31;10.25;;;5.82;;
74791;SDS011;63319;46.046;17.802;2023-02-21T06:06:37;10.10;;;6.07;;
74791;SDS011;63319;46.046;17.802;2023-02-21T06:09:41;9.55;;;6.13;;
74791;SDS011;63319;46.046;17.802;2023-02-21T06:12:44;9.50;;;6.22;;
74791;SDS011;63319;46.046;17.802;2023-02-21T06:15:47;9.57;;;5.70;;
74791;SDS011;63319;46.046;17.802;2023-02-21T06:18:51;10.70;;;5.97;;
74791;SDS011;63319;46.046;17.802;2023-02-21T06:21:55;9.37;;;5.80;;
74791;SDS011;63319;46.046;17.802;2023-02-21T06:24:58;10.38;;;6.15;;
74791;SDS011;63319;46.046;17.802;2023-02-21T06:28:01;10.00;;;6.13;;
74791;SDS011;63319;46.046;17.802;2023-02-21T06:31:04;9.30;;;5.50;;
74791;SDS011;63319;46.046;17.802;2023-02-21T06:34:08;10.02;;;5.90;;
74791;SDS011;63319;46.046;17.802;2023-02-21T06:37:11;10.07;;;5.80;;
74791;SDS011;63319;46.046;17.802;2023-02-21T06:40:13;9.70;;;6.00;;
74791;SDS011;63319;46.046;17.802;2023-02-21T06:43:16;9.57;;;6.35;;
74791;SDS011;63319;46.046;17.802;2023-02-21T06:46:21;8.60;;;5.13;;
74791;SDS011;63319;46.046;17.802;2023-02-21T06:49:25;9.88;;;5.88;;
74791;SDS011;63319;46.046;17.802;2023-02-21T06:52:29;11.27;;;6.20;;
74791;SDS011;63319;46.046;17.802;2023-02-21T06:55:33;11.75;;;7.13;;
74791;SDS011;63319;46.046;17.802;2023-02-21T06:58:36;14.05;;;8.90;;
74791;SDS011;63319;46.046;17.802;2023-02-21T07:01:39;14.45;;;9.43;;
74791;SDS011;63319;46.046;17.802;2023-02-21T07:04:42;20.42;;;11.57;;
74791;SDS011;63319;46.046;17.802;2023-02-21T07:07:45;23.63;;;16.47;;
74791;SDS011;63319;46.046;17.802;2023-02-21T07:10:49;19.17;;;15.40;;
74791;SDS011;63319;46.046;17.802;2023-02-21T07:13:52;19.90;;;14.98;;
74791;SDS011;63319;46.046;17.802;2023-02-21T07:16:58;23.40;;;14.98;;
74791;SDS011;63319;46.046;17.802;2023-02-21T07:20:09;21.02;;;15.38;;
74791;SDS011;63319;46.046;17.802;2023-02-21T07:23:14;23.13;;;15.40;;
74791;SDS011;63319;46.046;17.802;2023-02-21T07:26:17;20.02;;;14.80;;
74791;SDS011;63319;46.046;17.802;2023-02-21T07:29:20;21.05;;;13.85;;
74791;SDS011;63319;46.046;17.802;2023-02-21T07:32:23;19.52;;;12.20;;
74791;SDS011;63319;46.046;17.802;2023-02-21T07:35:25;19.35;;;12.75;;
74791;SDS011;63319;46.046;17.802;2023-02-21T07:38:28;18.40;;;12.17;;
74791;SDS011;63319;46.046;17.802;2023-02-21T07:41:33;19.40;;;11.98;;
74791;SDS011;63319;46.046;17.802;2023-02-21T07:44:35;21.23;;;11.32;;
74791;SDS011;63319;46.046;17.802;2023-02-21T07:47:38;15.90;;;11.73;;
74791;SDS011;63319;46.046;17.802;2023-02-21T07:50:43;18.13;;;12.10;;
74791;SDS011;63319;46.046;17.802;2023-02-21T07:53:46;18.57;;;10.27;;
74791;SDS011;63319;46.046;17.802;2023-02-21T07:56:49;21.38;;;11.00;;
74791;SDS011;63319;46.046;17.802;2023-02-21T07:59:53;18.13;;;11.38;;
74791;SDS011;63319;46.046;17.802;2023-02-21T08:02:56;14.63;;;9.18;;
74791;SDS011;63319;46.046;17.802;2023-02-21T08:05:59;17.13;;;10.88;;
74791;SDS011;63319;46.046;17.802;2023-02-21T08:09:03;14.17;;;10.30;;
74791;SDS011;63319;46.046;17.802;2023-02-21T08:12:06;14.13;;;9.90;;
74791;SDS011;63319;46.046;17.802;2023-02-21T08:15:09;15.43;;;10.43;;
74791;SDS011;63319;46.046;17.802;2023-02-21T08:18:19;17.67;;;10.43;;
74791;SDS011;63319;46.046;17.802;2023-02-21T08:21:26;16.95;;;10.15;;
74791;SDS011;63319;46.046;17.802;2023-02-21T08:24:30;16.30;;;9.43;;
74791;SDS011;63319;46.046;17.802;2023-02-21T08:27:37;12.80;;;8.85;;
74791;SDS011;63319;46.046;17.802;2023-02-21T08:30:42;13.80;;;8.80;;
74791;SDS011;63319;46.046;17.802;2023-02-21T08:33:46;13.82;;;9.13;;
74791;SDS011;63319;46.046;17.802;2023-02-21T08:36:49;15.07;;;9.52;;
74791;SDS011;63319;46.046;17.802;2023-02-21T08:39:52;12.33;;;8.50;;
74791;SDS011;63319;46.046;17.802;2023-02-21T08:42:55;13.10;;;8.05;;
74791;SDS011;63319;46.046;17.802;2023-02-21T08:46:00;13.57;;;8.15;;
74791;SDS011;63319;46.046;17.802;2023-02-21T08:49:04;12.70;;;7.53;;
74791;SDS011;63319;46.046;17.802;2023-02-21T08:52:07;12.20;;;7.32;;
74791;SDS011;63319;46.046;17.802;2023-02-21T08:55:10;11.43;;;6.90;;
74791;SDS011;63319;46.046;17.802;2023-02-21T08:58:13;11.65;;;7.43;;
74791;SDS011;63319;46.046;17.802;2023-02-21T09:01:16;12.55;;;7.68;;
74791;SDS011;63319;46.046;17.802;2023-02-21T09:04:20;10.00;;;6.82;;
74791;SDS011;63319;46.046;17.802;2023-02-21T09:07:25;10.55;;;6.32;;
74791;SDS011;63319;46.046;17.802;2023-02-21T09:10:31;10.23;;;6.13;;
74791;SDS011;63319;46.046;17.802;2023-02-21T09:13:37;9.63;;;6.32;;
74791;SDS011;63319;46.046;17.802;2023-02-21T09:16:40;9.55;;;6.10;;
74791;SDS011;63319;46.046;17.802;2023-02-21T09:19:44;10.65;;;6.38;;
74791;SDS011;63319;46.046;17.802;2023-02-21T09:22:47;10.45;;;6.45;;
74791;SDS011;63319;46.046;17.802;2023-02-21T09:25:50;13.80;;;6.20;;
74791;SDS011;63319;46.046;17.802;2023-02-21T09:28:54;14.02;;;8.25;;
74791;SDS011;63319;46.046;17.802;2023-02-21T09:32:02;12.85;;;7.35;;
74791;SDS011;63319;46.046;17.802;2023-02-21T09:35:05;12.07;;;7.18;;
74791;SDS011;63319;46.046;17.802;2023-02-21T09:38:09;12.82;;;7.15;;
74791;SDS011;63319;46.046;17.802;2023-02-21T09:41:13;11.43;;;6.00;;
74791;SDS011;63319;46.046;17.802;2023-02-21T09:44:18;12.85;;;6.45;;
74791;SDS011;63319;46.046;17.802;2023-02-21T09:47:25;10.00;;;6.30;;
74791;SDS011;63319;46.046;17.802;2023-02-21T09:50:31;15.30;;;5.93;;
74791;SDS011;63319;46.046;17.802;2023-02-21T09:53:41;9.75;;;6.53;;
74791;SDS011;63319;46.046;17.802;2023-02-21T09:56:47;10.13;;;5.73;;
74791;SDS011;63319;46.046;17.802;2023-02-21T09:59:50;9.60;;;6.20;;
74791;SDS011;63319;46.046;17.802;2023-02-21T10:03:08;10.57;;;6.35;;
74791;SDS011;63319;46.046;17.802;2023-02-21T10:09:55;11.27;;;5.72;;
74791;SDS011;63319;46.046;17.802;2023-02-21T10:13:30;11.77;;;6.20;;
74791;SDS011;63319;46.046;17.802;2023-02-21T10:19:58;10.35;;;5.90;;
74791;SDS011;63319;46.046;17.802;2023-02-21T10:23:13;9.48;;;5.55;;
74791;SDS011;63319;46.046;17.802;2023-02-21T10:26:22;10.20;;;5.93;;
74791;SDS011;63319;46.046;17.802;2023-02-21T10:29:34;16.07;;;5.63;;
74791;SDS011;63319;46.046;17.802;2023-02-21T10:32:43;10.73;;;5.00;;
74791;SDS011;63319;46.046;17.802;2023-02-21T10:35:46;11.50;;;5.15;;
74791;SDS011;63319;46.046;17.802;2023-02-21T10:39:09;7.63;;;5.13;;
74791;SDS011;63319;46.046;17.802;2023-02-21T10:42:41;9.63;;;5.82;;
74791;SDS011;63319;46.046;17.802;2023-02-21T10:45:49;9.07;;;5.00;;
74791;SDS011;63319;46.046;17.802;2023-02-21T10:52:35;9.32;;;5.35;;
74791;SDS011;63319;46.046;17.802;2023-02-21T10:55:40;10.90;;;5.35;;
74791;SDS011;63319;46.046;17.802;2023-02-21T10:58:46;8.75;;;5.53;;
74791;SDS011;63319;46.046;17.802;2023-02-21T11:02:03;9.80;;;5.83;;
74791;SDS011;63319;46.046;17.802;2023-02-21T11:05:28;10.77;;;4.65;;
74791;SDS011;63319;46.046;17.802;2023-02-21T11:08:39;10.07;;;5.25;;
74791;SDS011;63319;46.046;17.802;2023-02-21T11:12:03;8.00;;;5.20;;
74791;SDS011;63319;46.046;17.802;2023-02-21T11:15:15;9.43;;;5.60;;
74791;SDS011;63319;46.046;17.802;2023-02-21T11:18:24;9.17;;;5.10;;
74791;SDS011;63319;46.046;17.802;2023-02-21T11:21:32;9.18;;;5.45;;
74791;SDS011;63319;46.046;17.802;2023-02-21T11:24:49;7.53;;;4.80;;
74791;SDS011;63319;46.046;17.802;2023-02-21T11:31:05;8.43;;;4.55;;
74791;SDS011;63319;46.046;17.802;2023-02-21T11:34:14;8.53;;;4.63;;
74791;SDS011;63319;46.046;17.802;2023-02-21T11:37:20;8.57;;;4.82;;
74791;SDS011;63319;46.046;17.802;2023-02-21T11:43:37;9.40;;;4.43;;
74791;SDS011;63319;46.046;17.802;2023-02-21T11:46:49;7.15;;;4.50;;
74791;SDS011;63319;46.046;17.802;2023-02-21T11:50:07;7.47;;;4.57;;
74791;SDS011;63319;46.046;17.802;2023-02-21T12:03:50;5.95;;;3.80;;
74791;SDS011;63319;46.046;17.802;2023-02-21T12:07:44;8.00;;;4.80;;
74791;SDS011;63319;46.046;17.802;2023-02-21T12:14:07;7.50;;;4.15;;
74791;SDS011;63319;46.046;17.802;2023-02-21T12:24:04;9.50;;;4.13;;
74791;SDS011;63319;46.046;17.802;2023-02-21T12:27:29;8.63;;;4.70;;
74791;SDS011;63319;46.046;17.802;2023-02-21T12:34:04;8.10;;;4.68;;
74791;SDS011;63319;46.046;17.802;2023-02-21T12:40:50;9.60;;;4.40;;
74791;SDS011;63319;46.046;17.802;2023-02-21T12:47:48;9.30;;;4.55;;
74791;SDS011;63319;46.046;17.802;2023-02-21T12:50:58;9.27;;;4.47;;
74791;SDS011;63319;46.046;17.802;2023-02-21T12:54:08;10.65;;;4.60;;
74791;SDS011;63319;46.046;17.802;2023-02-21T12:57:18;11.10;;;4.20;;
74791;SDS011;63319;46.046;17.802;2023-02-21T13:07:42;14.18;;;5.03;;
74791;SDS011;63319;46.046;17.802;2023-02-21T13:10:57;15.55;;;5.95;;
74791;SDS011;63319;46.046;17.802;2023-02-21T13:14:17;13.93;;;5.67;;
74791;SDS011;63319;46.046;17.802;2023-02-21T13:17:24;12.65;;;5.25;;
74791;SDS011;63319;46.046;17.802;2023-02-21T13:20:32;13.90;;;5.55;;
74791;SDS011;63319;46.046;17.802;2023-02-21T13:23:44;18.80;;;5.40;;
74791;SDS011;63319;46.046;17.802;2023-02-21T13:30:48;12.60;;;5.00;;
74791;SDS011;63319;46.046;17.802;2023-02-21T13:33:59;11.63;;;4.43;;
74791;SDS011;63319;46.046;17.802;2023-02-21T13:37:05;10.30;;;4.38;;
74791;SDS011;63319;46.046;17.802;2023-02-21T13:40:23;13.85;;;5.07;;
74791;SDS011;63319;46.046;17.802;2023-02-21T13:43:33;11.00;;;4.57;;
74791;SDS011;63319;46.046;17.802;2023-02-21T13:49:56;9.27;;;4.22;;
74791;SDS011;63319;46.046;17.802;2023-02-21T13:56:40;14.70;;;4.65;;
74791;SDS011;63319;46.046;17.802;2023-02-21T13:59:45;11.50;;;4.40;;
74791;SDS011;63319;46.046;17.802;2023-02-21T14:09:30;11.52;;;4.72;;
74791;SDS011;63319;46.046;17.802;2023-02-21T14:12:41;10.98;;;4.75;;
74791;SDS011;63319;46.046;17.802;2023-02-21T14:15:46;9.20;;;4.80;;
74791;SDS011;63319;46.046;17.802;2023-02-21T14:22:04;8.95;;;4.18;;
74791;SDS011;63319;46.046;17.802;2023-02-21T14:25:16;9.65;;;4.50;;
74791;SDS011;63319;46.046;17.802;2023-02-21T14:38:23;10.75;;;4.70;;
74791;SDS011;63319;46.046;17.802;2023-02-21T14:41:38;13.63;;;4.20;;
74791;SDS011;63319;46.046;17.802;2023-02-21T14:45:13;10.32;;;4.35;;
74791;SDS011;63319;46.046;17.802;2023-02-21T15:01:39;6.93;;;3.85;;
74791;SDS011;63319;46.046;17.802;2023-02-21T15:08:23;7.80;;;3.83;;
74791;SDS011;63319;46.046;17.802;2023-02-21T15:11:30;8.40;;;3.95;;
74791;SDS011;63319;46.046;17.802;2023-02-21T15:14:40;7.63;;;4.03;;
74791;SDS011;63319;46.046;17.802;2023-02-21T15:17:57;7.20;;;3.83;;
74791;SDS011;63319;46.046;17.802;2023-02-21T15:21:06;9.95;;;4.78;;
74791;SDS011;63319;46.046;17.802;2023-02-21T15:24:13;6.70;;;3.70;;
74791;SDS011;63319;46.046;17.802;2023-02-21T15:27:17;8.05;;;3.88;;
74791;SDS011;63319;46.046;17.802;2023-02-21T15:30:22;7.93;;;4.20;;
74791;SDS011;63319;46.046;17.802;2023-02-21T15:33:29;7.10;;;3.75;;
74791;SDS011;63319;46.046;17.802;2023-02-21T15:36:39;7.88;;;4.45;;
74791;SDS011;63319;46.046;17.802;2023-02-21T15:39:59;8.30;;;3.73;;
74791;SDS011;63319;46.046;17.802;2023-02-21T15:43:30;8.00;;;4.18;;
74791;SDS011;63319;46.046;17.802;2023-02-21T15:52:56;7.45;;;4.18;;
74791;SDS011;63319;46.046;17.802;2023-02-21T15:56:24;7.03;;;4.20;;
74791;SDS011;63319;46.046;17.802;2023-02-21T15:59:30;8.63;;;3.70;;
74791;SDS011;63319;46.046;17.802;2023-02-21T16:02:34;11.60;;;4.22;;
74791;SDS011;63319;46.046;17.802;2023-02-21T16:05:37;10.80;;;4.25;;
74791;SDS011;63319;46.046;17.802;2023-02-21T16:15:26;7.30;;;4.22;;
74791;SDS011;63319;46.046;17.802;2023-02-21T16:18:32;9.90;;;4.63;;
74791;SDS011;63319;46.046;17.802;2023-02-21T16:21:36;7.05;;;4.13;;
74791;SDS011;63319;46.046;17.802;2023-02-21T16:24:41;10.20;;;4.75;;
74791;SDS011;63319;46.046;17.802;2023-02-21T16:27:47;8.63;;;4.30;;
74791;SDS011;63319;46.046;17.802;2023-02-21T16:30:54;10.57;;;4.80;;
74791;SDS011;63319;46.046;17.802;2023-02-21T16:34:00;7.55;;;3.63;;
74791;SDS011;63319;46.046;17.802;2023-02-21T16:37:07;9.52;;;4.20;;
74791;SDS011;63319;46.046;17.802;2023-02-21T16:40:16;8.10;;;4.10;;
74791;SDS011;63319;46.046;17.802;2023-02-21T16:43:25;7.67;;;3.97;;
74791;SDS011;63319;46.046;17.802;2023-02-21T16:46:29;6.97;;;4.00;;
74791;SDS011;63319;46.046;17.802;2023-02-21T16:49:37;9.10;;;4.10;;
74791;SDS011;63319;46.046;17.802;2023-02-21T16:52:41;10.00;;;4.53;;
74791;SDS011;63319;46.046;17.802;2023-02-21T16:55:44;8.25;;;4.28;;
74791;SDS011;63319;46.046;17.802;2023-02-21T16:58:49;9.47;;;4.43;;
74791;SDS011;63319;46.046;17.802;2023-02-21T17:01:58;9.05;;;4.30;;
74791;SDS011;63319;46.046;17.802;2023-02-21T17:05:03;7.82;;;4.65;;
74791;SDS011;63319;46.046;17.802;2023-02-21T17:08:12;9.00;;;4.20;;
74791;SDS011;63319;46.046;17.802;2023-02-21T17:11:16;8.02;;;4.43;;
74791;SDS011;63319;46.046;17.802;2023-02-21T17:14:20;8.00;;;4.60;;
74791;SDS011;63319;46.046;17.802;2023-02-21T17:17:25;8.18;;;4.15;;
74791;SDS011;63319;46.046;17.802;2023-02-21T17:20:32;9.05;;;4.43;;
74791;SDS011;63319;46.046;17.802;2023-02-21T17:23:36;10.02;;;4.13;;
74791;SDS011;63319;46.046;17.802;2023-02-21T17:26:39;7.57;;;4.32;;
74791;SDS011;63319;46.046;17.802;2023-02-21T17:29:45;8.10;;;4.83;;
74791;SDS011;63319;46.046;17.802;2023-02-21T17:32:50;10.70;;;4.47;;
74791;SDS011;63319;46.046;17.802;2023-02-21T17:35:54;9.27;;;4.60;;
74791;SDS011;63319;46.046;17.802;2023-02-21T17:38:59;10.43;;;4.65;;
74791;SDS011;63319;46.046;17.802;2023-02-21T17:42:06;8.38;;;4.57;;
74791;SDS011;63319;46.046;17.802;2023-02-21T17:45:10;9.43;;;4.57;;
74791;SDS011;63319;46.046;17.802;2023-02-21T17:48:15;10.93;;;5.50;;
74791;SDS011;63319;46.046;17.802;2023-02-21T17:51:22;8.30;;;5.00;;
74791;SDS011;63319;46.046;17.802;2023-02-21T17:54:30;10.40;;;5.05;;
74791;SDS011;63319;46.046;17.802;2023-02-21T17:57:36;11.13;;;5.63;;
74791;SDS011;63319;46.046;17.802;2023-02-21T18:00:46;10.93;;;5.20;;
74791;SDS011;63319;46.046;17.802;2023-02-21T18:03:50;10.50;;;5.90;;
74791;SDS011;63319;46.046;17.802;2023-02-21T18:06:54;9.13;;;5.55;;
74791;SDS011;63319;46.046;17.802;2023-02-21T18:10:03;10.25;;;5.53;;
74791;SDS011;63319;46.046;17.802;2023-02-21T18:13:11;10.88;;;6.15;;
74791;SDS011;63319;46.046;17.802;2023-02-21T18:16:17;9.97;;;5.40;;
74791;SDS011;63319;46.046;17.802;2023-02-21T18:19:25;10.02;;;5.57;;
74791;SDS011;63319;46.046;17.802;2023-02-21T18:22:29;12.80;;;6.22;;
74791;SDS011;63319;46.046;17.802;2023-02-21T18:25:35;11.10;;;6.45;;
74791;SDS011;63319;46.046;17.802;2023-02-21T18:28:40;9.90;;;6.07;;
74791;SDS011;63319;46.046;17.802;2023-02-21T18:31:45;12.13;;;6.90;;
74791;SDS011;63319;46.046;17.802;2023-02-21T18:34:56;11.95;;;6.05;;
74791;SDS011;63319;46.046;17.802;2023-02-21T18:38:02;10.80;;;6.15;;
74791;SDS011;63319;46.046;17.802;2023-02-21T18:41:13;12.32;;;7.07;;
74791;SDS011;63319;46.046;17.802;2023-02-21T18:44:22;10.70;;;6.30;;
74791;SDS011;63319;46.046;17.802;2023-02-21T18:47:26;15.37;;;8.60;;
74791;SDS011;63319;46.046;17.802;2023-02-21T18:50:32;13.23;;;7.57;;
74791;SDS011;63319;46.046;17.802;2023-02-21T18:53:39;12.23;;;7.50;;
74791;SDS011;63319;46.046;17.802;2023-02-21T18:56:49;12.00;;;7.50;;
74791;SDS011;63319;46.046;17.802;2023-02-21T18:59:54;12.52;;;7.53;;
74791;SDS011;63319;46.046;17.802;2023-02-21T19:02:59;13.27;;;7.33;;
74791;SDS011;63319;46.046;17.802;2023-02-21T19:06:06;12.07;;;7.05;;
74791;SDS011;63319;46.046;17.802;2023-02-21T19:09:14;13.27;;;7.35;;
74791;SDS011;63319;46.046;17.802;2023-02-21T19:12:19;11.13;;;6.93;;
74791;SDS011;63319;46.046;17.802;2023-02-21T19:15:28;10.75;;;7.07;;
74791;SDS011;63319;46.046;17.802;2023-02-21T19:18:36;11.97;;;6.90;;
74791;SDS011;63319;46.046;17.802;2023-02-21T19:21:41;11.00;;;7.10;;
74791;SDS011;63319;46.046;17.802;2023-02-21T19:24:47;11.77;;;7.50;;
74791;SDS011;63319;46.046;17.802;2023-02-21T19:27:55;11.98;;;7.13;;
74791;SDS011;63319;46.046;17.802;2023-02-21T19:31:03;12.18;;;6.63;;
74791;SDS011;63319;46.046;17.802;2023-02-21T19:34:09;11.60;;;6.90;;
74791;SDS011;63319;46.046;17.802;2023-02-21T19:37:15;11.77;;;6.65;;
74791;SDS011;63319;46.046;17.802;2023-02-21T19:40:22;10.88;;;6.57;;
74791;SDS011;63319;46.046;17.802;2023-02-21T19:43:28;11.80;;;7.07;;
74791;SDS011;63319;46.046;17.802;2023-02-21T19:46:36;12.13;;;7.32;;
74791;SDS011;63319;46.046;17.802;2023-02-21T19:49:41;10.93;;;6.27;;
74791;SDS011;63319;46.046;17.802;2023-02-21T19:52:50;11.55;;;6.90;;
74791;SDS011;63319;46.046;17.802;2023-02-21T19:56:08;12.95;;;6.80;;
74791;SDS011;63319;46.046;17.802;2023-02-21T19:59:17;10.70;;;6.80;;
74791;SDS011;63319;46.046;17.802;2023-02-21T20:02:22;10.30;;;6.72;;
74791;SDS011;63319;46.046;17.802;2023-02-21T20:05:27;12.20;;;6.90;;
74791;SDS011;63319;46.046;17.802;2023-02-21T20:08:34;10.88;;;6.65;;
74791;SDS011;63319;46.046;17.802;2023-02-21T20:11:38;14.10;;;7.30;;
74791;SDS011;63319;46.046;17.802;2023-02-21T20:14:48;12.20;;;6.50;;
74791;SDS011;63319;46.046;17.802;2023-02-21T20:17:53;11.18;;;6.88;;
74791;SDS011;63319;46.046;17.802;2023-02-21T20:21:01;10.20;;;6.47;;
74791;SDS011;63319;46.046;17.802;2023-02-21T20:24:05;11.82;;;6.47;;
74791;SDS011;63319;46.046;17.802;2023-02-21T20:27:12;9.93;;;6.20;;
74791;SDS011;63319;46.046;17.802;2023-02-21T20:30:19;12.32;;;7.35;;
74791;SDS011;63319;46.046;17.802;2023-02-21T20:33:27;12.70;;;6.45;;
74791;SDS011;63319;46.046;17.802;2023-02-21T20:36:35;13.13;;;7.00;;
74791;SDS011;63319;46.046;17.802;2023-02-21T20:39:42;11.48;;;6.88;;
74791;SDS011;63319;46.046;17.802;2023-02-21T20:42:47;10.90;;;6.57;;
74791;SDS011;63319;46.046;17.802;2023-02-21T20:45:52;11.40;;;7.10;;
74791;SDS011;63319;46.046;17.802;2023-02-21T20:48:57;11.75;;;6.93;;